SBCG/CGR METAR and TAF weather

Enter ICAO airport designator
Station Type Date Time Source
SBCG METAR 2021/02/27 21:00 UTC NOAA

SBCG 272100Z 15008KT 110V170 9999 SCT045 30/18 Q1009


Station Type Date Time Source
SBCG Decoded METAR 2021/02/27 21:00 UTC NOAA

Campo Grande Aeroporto , Brazil (SBCG) 20-28S 054-40W 567M
Feb 27, 2021 - 04:00 PM EST / 2021.02.27 2100 UTC
Wind: from the SSE (150 degrees) at 9 MPH (8 KT) (direction variable):0
Visibility: greater than 7 mile(s):0
Sky conditions: partly cloudy
Temperature: 86 F (30 C)
Dew Point: 64 F (18 C)
Relative Humidity: 48%
Pressure (altimeter): 29.80 in. Hg (1009 hPa)
ob: SBCG 272100Z 15008KT 110V170 9999 SCT045 30/18 Q1009
cycle: 21

Station Type Date Time Source
SBCG TAF 2021/02/27 18:36 UTC NOAA

TAF SBCG 271400Z 2718/2818 12007KT 8000 BKN035 TX30/2718Z TN21/2809Z PROB30
TEMPO 2718/2724 SHRA BKN035 FEW045TCU
BECMG 2802/2804 CAVOK
BECMG 2813/2815 8000 BKN035
TEMPO 2817/2818 VCTS BKN035 FEW045CB
RMK PGH

Example: see airport list